createdAt,value
2019-03-25T00:00:46.613Z,3.30
2019-03-25T00:02:48.239Z,3.40
2019-03-25T00:06:50.619Z,2.40
2019-03-25T00:09:04.628Z,3.83
2019-03-25T00:10:54.853Z,2.87
2019-03-25T00:12:55.994Z,3.10
2019-03-25T00:14:57.166Z,3.90
2019-03-25T00:16:58.341Z,3.60
2019-03-25T00:18:59.507Z,2.60
2019-03-25T00:21:00.657Z,3.47
2019-03-25T00:23:01.828Z,3.90
2019-03-25T00:25:04.578Z,3.80
2019-03-25T00:27:05.729Z,3.70
2019-03-25T00:29:07.234Z,4.05
2019-03-25T00:31:08.495Z,4.60
2019-03-25T00:33:09.642Z,3.30
2019-03-25T00:35:10.906Z,3.17
2019-03-25T00:37:12.168Z,4.10
2019-03-25T00:39:13.378Z,3.77
2019-03-25T00:41:14.522Z,3.70
2019-03-25T00:43:15.686Z,4.20
2019-03-25T00:45:16.873Z,4.47
2019-03-25T00:47:18.033Z,3.67
2019-03-25T00:49:19.562Z,4.35
2019-03-25T00:51:21.327Z,4.08
2019-03-25T00:53:22.498Z,4.92
2019-03-25T00:55:23.711Z,4.80
2019-03-25T00:57:24.864Z,4.22
2019-03-25T00:59:26.114Z,4.25
2019-03-25T01:01:27.271Z,4.35
2019-03-25T01:03:28.564Z,4.78
2019-03-25T01:05:29.731Z,4.12
2019-03-25T01:07:30.878Z,3.70
2019-03-25T01:09:32.094Z,5.20
2019-03-25T01:11:33.332Z,4.25
2019-03-25T01:13:34.511Z,4.37
2019-03-25T01:15:35.851Z,3.85
2019-03-25T01:17:37.001Z,3.70
2019-03-25T01:19:38.195Z,4.05
2019-03-25T01:21:39.382Z,3.98
2019-03-25T01:23:40.867Z,4.20
2019-03-25T01:25:42.115Z,3.67
2019-03-25T01:27:43.463Z,4.00
2019-03-25T01:29:44.668Z,4.30
2019-03-25T01:31:45.898Z,4.03
2019-03-25T01:33:47.251Z,4.30
2019-03-25T01:37:50.035Z,4.12
2019-03-25T01:39:51.351Z,3.72
2019-03-25T01:41:52.586Z,3.65
2019-03-25T01:43:54.042Z,4.40
2019-03-25T01:45:55.212Z,4.40
2019-03-25T01:47:56.418Z,3.70
2019-03-25T01:49:57.587Z,4.45
2019-03-25T01:51:58.772Z,3.87
2019-03-25T01:53:59.990Z,4.87
2019-03-25T01:56:01.423Z,4.12
2019-03-25T01:58:02.787Z,4.20
2019-03-25T02:00:05.755Z,4.95
2019-03-25T02:02:06.926Z,4.42
2019-03-25T02:04:08.097Z,4.58
2019-03-25T02:06:09.346Z,4.70
2019-03-25T02:08:10.500Z,4.28
2019-03-25T02:10:12.210Z,5.03
2019-03-25T02:14:14.426Z,5.35
2019-03-25T02:16:15.699Z,4.15
2019-03-25T02:18:17.294Z,4.78
2019-03-25T02:20:26.331Z,4.30
2019-03-25T02:22:21.558Z,4.50
2019-03-25T02:24:22.730Z,5.22
2019-03-25T02:26:23.886Z,5.08
2019-03-25T02:28:25.041Z,5.12
2019-03-25T02:30:35.013Z,5.53
2019-03-25T02:33:48.684Z,5.83
2019-03-25T02:36:17.461Z,5.60
2019-03-25T02:38:21.830Z,6.50
2019-03-25T02:40:23.552Z,6.33
2019-03-25T02:43:15.246Z,6.50
2019-03-25T02:45:14.402Z,6.12
2019-03-25T02:47:15.778Z,7.37
2019-03-25T02:49:17.267Z,7.05
2019-03-25T02:51:18.614Z,6.65
2019-03-25T02:53:19.901Z,5.75
2019-03-25T02:55:21.244Z,7.42
2019-03-25T02:57:24.561Z,7.67
2019-03-25T02:59:25.937Z,5.80
2019-03-25T03:01:27.336Z,6.67
2019-03-25T03:03:28.553Z,6.58
2019-03-25T03:05:29.962Z,7.83
2019-03-25T03:07:31.270Z,6.40
2019-03-25T03:09:32.497Z,6.28
2019-03-25T03:11:47.776Z,7.60
2019-03-25T03:13:51.512Z,6.72
2019-03-25T03:18:50.588Z,5.47
2019-03-25T03:21:02.397Z,7.20
2019-03-25T03:23:18.677Z,8.33
2019-03-25T03:28:00.769Z,9.65
2019-03-25T03:30:03.807Z,8.38
2019-03-25T03:32:07.920Z,8.93
2019-03-25T03:34:10.488Z,9.03
2019-03-25T03:36:17.037Z,10.10
2019-03-25T03:38:29.915Z,7.85
2019-03-25T03:40:50.818Z,7.72
2019-03-25T03:43:19.025Z,7.15
2019-03-25T03:45:20.868Z,5.62
2019-03-25T03:49:23.902Z,3.30
2019-03-25T03:53:29.158Z,3.62
2019-03-25T03:55:30.819Z,3.65
2019-03-25T03:59:33.292Z,3.70
2019-03-25T04:01:34.609Z,3.30
2019-03-25T04:03:35.855Z,3.50
2019-03-25T04:05:37.066Z,3.45
2019-03-25T04:07:38.308Z,3.77
2019-03-25T04:09:39.525Z,3.47
2019-03-25T04:11:40.708Z,3.15
2019-03-25T04:13:41.905Z,3.72
2019-03-25T04:15:43.160Z,3.20
2019-03-25T04:17:49.806Z,3.08
2019-03-25T04:19:51.149Z,2.90
2019-03-25T04:21:52.444Z,3.80
2019-03-25T04:23:53.647Z,3.35
2019-03-25T04:25:54.946Z,3.25
2019-03-25T04:27:56.116Z,3.30
2019-03-25T04:29:57.291Z,2.98
2019-03-25T04:31:58.492Z,3.12
2019-03-25T04:33:59.874Z,2.60
2019-03-25T04:36:01.081Z,2.58
2019-03-25T04:38:02.354Z,2.42
2019-03-25T04:40:06.271Z,2.22
2019-03-25T04:42:07.686Z,1.55
2019-03-25T04:44:08.950Z,1.82
2019-03-25T04:46:10.299Z,1.80
2019-03-25T04:48:11.487Z,2.05
2019-03-25T04:50:12.652Z,1.85
2019-03-25T04:52:13.852Z,1.85
2019-03-25T04:54:15.235Z,1.80
2019-03-25T04:56:16.408Z,1.87
2019-03-25T04:58:17.573Z,2.05
2019-03-25T05:00:22.568Z,2.20
2019-03-25T05:02:23.782Z,1.90
2019-03-25T05:04:24.960Z,2.27
2019-03-25T05:06:26.225Z,2.65
2019-03-25T05:08:27.876Z,2.83
2019-03-25T05:12:30.189Z,2.03
2019-03-25T05:14:31.420Z,2.17
2019-03-25T05:16:32.599Z,2.10
2019-03-25T05:18:33.856Z,2.00
2019-03-25T05:20:35.068Z,2.40
2019-03-25T05:22:36.330Z,2.08
2019-03-25T05:24:37.490Z,2.05
2019-03-25T05:26:38.652Z,1.90
2019-03-25T05:28:39.977Z,2.08
2019-03-25T05:30:44.119Z,2.37
2019-03-25T05:32:45.501Z,1.82
2019-03-25T05:34:46.749Z,2.95
2019-03-25T05:36:47.953Z,2.67
2019-03-25T05:38:49.208Z,3.20
2019-03-25T05:40:50.500Z,3.30
2019-03-25T05:42:51.737Z,3.60
2019-03-25T05:44:52.912Z,3.12
2019-03-25T05:46:54.132Z,2.87
2019-03-25T05:48:55.403Z,3.37
2019-03-25T05:50:57.003Z,3.45
2019-03-25T05:52:58.313Z,3.52
2019-03-25T05:54:59.484Z,2.83
2019-03-25T05:57:02.828Z,3.42
2019-03-25T05:59:03.781Z,2.50
2019-03-25T06:01:05.079Z,3.02
2019-03-25T06:03:06.310Z,2.50
2019-03-25T06:05:07.780Z,2.80
2019-03-25T06:07:08.983Z,3.12
2019-03-25T06:09:10.459Z,2.70
2019-03-25T06:11:11.914Z,1.95
2019-03-25T06:13:13.429Z,1.92
2019-03-25T06:15:14.914Z,2.42
2019-03-25T06:17:16.147Z,1.80
2019-03-25T06:19:17.451Z,1.92
2019-03-25T06:21:18.904Z,2.20
2019-03-25T06:23:20.180Z,1.90
2019-03-25T06:25:21.345Z,2.00
2019-03-25T06:27:22.627Z,1.80
2019-03-25T06:29:23.840Z,1.80
2019-03-25T06:31:25.117Z,1.62
2019-03-25T06:33:26.320Z,1.98
2019-03-25T06:35:27.767Z,2.55
2019-03-25T06:37:29.044Z,1.65
2019-03-25T06:39:30.226Z,2.10
2019-03-25T06:41:31.518Z,2.27
2019-03-25T06:43:32.676Z,1.82
2019-03-25T06:45:33.867Z,1.47
2019-03-25T06:47:35.037Z,1.95
2019-03-25T06:49:36.484Z,1.98
2019-03-25T06:51:37.807Z,1.60
2019-03-25T06:53:38.967Z,1.77
2019-03-25T06:55:40.154Z,1.45
2019-03-25T06:57:41.324Z,1.67
2019-03-25T06:59:42.522Z,2.22
2019-03-25T07:01:43.788Z,1.92
2019-03-25T07:03:44.964Z,2.02
2019-03-25T07:05:46.119Z,2.08
2019-03-25T07:07:47.365Z,1.77
2019-03-25T07:09:48.536Z,2.17
2019-03-25T07:11:49.726Z,2.05
2019-03-25T07:13:50.992Z,2.20
2019-03-25T07:15:52.205Z,2.17
2019-03-25T07:17:53.701Z,3.17
2019-03-25T07:19:54.870Z,2.58
2019-03-25T07:21:56.103Z,1.80
2019-03-25T07:23:57.374Z,2.60
2019-03-25T07:25:58.630Z,1.62
2019-03-25T07:27:59.810Z,1.75
2019-03-25T07:30:00.991Z,2.00
2019-03-25T07:32:02.170Z,1.85
2019-03-25T07:34:03.327Z,2.42
2019-03-25T07:36:04.484Z,2.00
2019-03-25T07:38:05.668Z,2.15
2019-03-25T07:40:07.323Z,2.42
2019-03-25T07:42:08.576Z,2.62
2019-03-25T07:44:09.751Z,2.47
2019-03-25T07:46:10.937Z,2.22
2019-03-25T07:48:12.118Z,1.98
2019-03-25T07:50:13.400Z,1.92
2019-03-25T07:52:14.570Z,2.62
2019-03-25T07:54:15.950Z,2.40
2019-03-25T07:56:21.474Z,2.52
2019-03-25T07:58:22.795Z,2.40
2019-03-25T08:00:24.157Z,2.35
2019-03-25T08:02:25.448Z,2.10
2019-03-25T08:04:26.730Z,1.98
2019-03-25T08:06:28.017Z,2.52
2019-03-25T08:08:29.315Z,2.47
2019-03-25T08:10:31.981Z,2.22
2019-03-25T08:12:33.595Z,2.65
2019-03-25T08:14:37.611Z,1.98
2019-03-25T08:16:38.918Z,1.62
2019-03-25T08:18:40.093Z,1.47
2019-03-25T08:20:41.302Z,1.50
2019-03-25T08:22:42.522Z,2.20
2019-03-25T08:24:43.787Z,1.98
2019-03-25T08:26:45.124Z,1.85
2019-03-25T08:28:46.363Z,1.87
2019-03-25T08:30:47.533Z,1.50
2019-03-25T08:32:48.733Z,1.75
2019-03-25T08:34:49.916Z,1.70
2019-03-25T08:36:51.207Z,1.98
2019-03-25T08:38:52.471Z,2.00
2019-03-25T08:40:53.678Z,2.08
2019-03-25T08:42:54.879Z,1.80
2019-03-25T08:44:56.116Z,1.50
2019-03-25T08:46:57.325Z,1.95
2019-03-25T08:48:58.604Z,2.05
2019-03-25T08:50:59.845Z,2.27
2019-03-25T08:53:01.125Z,1.90
2019-03-25T08:55:04.224Z,2.17
2019-03-25T08:57:05.497Z,2.42
2019-03-25T08:59:06.770Z,1.40
2019-03-25T09:01:08.229Z,1.52
2019-03-25T09:03:09.517Z,1.77
2019-03-25T09:05:11.130Z,1.17
2019-03-25T09:09:13.440Z,1.77
2019-03-25T09:11:14.627Z,1.60
2019-03-25T09:13:15.802Z,1.15
2019-03-25T09:15:17.266Z,1.02
2019-03-25T09:17:18.415Z,1.00
2019-03-25T09:19:19.635Z,1.62
2019-03-25T09:21:20.888Z,1.02
2019-03-25T09:23:22.067Z,1.05
2019-03-25T09:25:23.231Z,0.90
2019-03-25T09:27:24.443Z,0.85
2019-03-25T09:29:25.698Z,1.52
2019-03-25T09:31:36.331Z,1.40
2019-03-25T09:33:30.042Z,0.90
2019-03-25T09:35:31.244Z,1.52
2019-03-25T09:37:32.592Z,1.40
2019-03-25T09:39:33.991Z,1.35
2019-03-25T09:41:35.277Z,1.92
2019-03-25T09:43:36.546Z,1.50
2019-03-25T09:45:37.808Z,1.15
2019-03-25T09:47:38.975Z,1.15
2019-03-25T09:49:40.461Z,1.37
2019-03-25T09:51:42.132Z,1.80
2019-03-25T09:55:44.667Z,1.35
2019-03-25T09:57:47.082Z,1.52
2019-03-25T09:59:59.577Z,1.32
2019-03-25T10:02:12.060Z,1.02
2019-03-25T10:06:42.645Z,1.07
2019-03-25T10:08:46.210Z,0.95
2019-03-25T10:10:47.664Z,1.10
2019-03-25T10:12:49.291Z,1.40
2019-03-25T10:16:56.736Z,1.00
2019-03-25T10:18:58.235Z,1.50
2019-03-25T10:20:59.706Z,1.20
2019-03-25T10:23:01.037Z,1.25
2019-03-25T10:25:05.009Z,1.17
2019-03-25T10:27:06.405Z,1.40
2019-03-25T10:29:07.798Z,1.82
2019-03-25T10:31:09.087Z,1.10
2019-03-25T10:33:10.264Z,1.20
2019-03-25T10:35:12.346Z,0.65
2019-03-25T10:37:13.623Z,0.85
2019-03-25T10:39:14.895Z,1.02
2019-03-25T10:41:16.092Z,1.15
2019-03-25T10:43:17.258Z,1.35
2019-03-25T10:45:18.523Z,0.60
2019-03-25T10:47:19.692Z,1.10
2019-03-25T10:49:20.945Z,1.17
2019-03-25T10:51:22.727Z,0.80
2019-03-25T10:53:23.894Z,0.60
2019-03-25T10:55:25.710Z,0.60
2019-03-25T10:57:35.305Z,0.70
2019-03-25T10:59:36.682Z,0.68
2019-03-25T11:01:37.981Z,0.70
2019-03-25T11:03:39.235Z,0.55
2019-03-25T11:05:40.804Z,0.62
2019-03-25T11:07:44.528Z,0.47
2019-03-25T11:09:45.984Z,0.75
2019-03-25T11:11:47.296Z,0.80
2019-03-25T11:13:48.753Z,0.60
2019-03-25T11:15:49.949Z,0.50
2019-03-25T11:17:51.146Z,0.62
2019-03-25T11:19:52.711Z,1.00
2019-03-25T11:21:53.979Z,0.78
2019-03-25T11:23:55.147Z,0.80
2019-03-25T11:29:08.619Z,0.57
2019-03-25T11:31:08.782Z,0.90
2019-03-25T11:33:09.934Z,0.93
2019-03-25T11:35:11.681Z,1.12
2019-03-25T11:39:13.843Z,1.12
2019-03-25T11:43:21.446Z,0.75
2019-03-25T11:45:22.934Z,0.90
2019-03-25T11:47:24.074Z,0.60
2019-03-25T11:49:25.261Z,1.15
2019-03-25T11:51:26.413Z,0.85
2019-03-25T11:53:28.351Z,1.00
2019-03-25T11:55:29.592Z,0.68
2019-03-25T11:57:30.733Z,1.92
2019-03-25T11:59:31.897Z,1.07
2019-03-25T12:01:33.072Z,1.55
2019-03-25T12:03:34.524Z,1.37
2019-03-25T12:05:35.679Z,1.60
2019-03-25T12:07:36.822Z,1.10
2019-03-25T12:09:37.985Z,1.60
2019-03-25T12:11:39.509Z,1.65
2019-03-25T12:13:40.655Z,1.27
2019-03-25T12:15:42.094Z,1.32
2019-03-25T12:17:43.371Z,1.98
2019-03-25T12:19:44.596Z,1.55
2019-03-25T12:21:45.849Z,1.22
2019-03-25T12:23:46.993Z,1.05
2019-03-25T12:25:48.491Z,1.12
2019-03-25T12:27:49.632Z,0.68
2019-03-25T12:29:50.773Z,1.20
2019-03-25T12:31:51.922Z,1.40
2019-03-25T12:33:53.062Z,1.50
2019-03-25T12:35:54.601Z,1.55
2019-03-25T12:37:55.942Z,1.00
2019-03-25T12:39:57.281Z,0.90
2019-03-25T12:41:58.520Z,1.02
2019-03-25T12:43:59.770Z,0.93
2019-03-25T12:46:00.925Z,0.90
2019-03-25T12:48:02.461Z,0.75
2019-03-25T12:50:07.573Z,1.00
2019-03-25T12:52:09.151Z,0.60
2019-03-25T12:54:10.326Z,0.68
2019-03-25T12:56:11.877Z,1.10
2019-03-25T12:58:13.100Z,0.88
2019-03-25T13:00:18.063Z,0.90
2019-03-25T13:02:19.241Z,0.90
2019-03-25T13:04:20.405Z,0.78
2019-03-25T13:06:21.573Z,0.98
2019-03-25T13:08:32.760Z,1.75
2019-03-25T13:10:26.003Z,1.57
2019-03-25T13:12:27.158Z,1.02
2019-03-25T13:14:28.301Z,1.20
2019-03-25T13:16:29.530Z,0.60
2019-03-25T13:18:30.698Z,1.67
2019-03-25T13:20:31.852Z,1.07
2019-03-25T13:22:32.993Z,0.60
2019-03-25T13:24:34.166Z,1.20
2019-03-25T13:26:35.477Z,0.98
2019-03-25T13:28:36.614Z,1.07
2019-03-25T13:30:38.183Z,2.45
2019-03-25T13:32:39.425Z,1.82
2019-03-25T13:34:40.653Z,1.92
2019-03-25T13:36:41.806Z,3.30
2019-03-25T13:38:43.040Z,2.55
2019-03-25T13:40:44.182Z,5.92
2019-03-25T13:42:45.362Z,1.57
2019-03-25T13:44:46.520Z,0.57
2019-03-25T13:46:48.106Z,0.33
2019-03-25T13:48:49.275Z,0.62
2019-03-25T13:50:50.421Z,0.72
2019-03-25T13:52:51.595Z,0.60
2019-03-25T13:54:52.784Z,0.50
2019-03-25T13:56:54.018Z,0.80
2019-03-25T13:58:55.166Z,0.68
2019-03-25T14:00:56.599Z,1.02
2019-03-25T14:02:57.749Z,0.50
2019-03-25T14:04:58.895Z,0.42
2019-03-25T14:07:00.301Z,0.70
2019-03-25T14:09:01.538Z,0.50
2019-03-25T14:11:03.225Z,0.50
2019-03-25T14:15:07.583Z,0.80
2019-03-25T14:17:08.779Z,0.72
2019-03-25T14:19:09.922Z,0.82
2019-03-25T14:21:11.093Z,0.70
2019-03-25T14:23:12.418Z,0.90
2019-03-25T14:25:13.851Z,0.75
2019-03-25T14:27:15.033Z,0.60
2019-03-25T14:29:16.174Z,0.37
2019-03-25T14:31:17.373Z,0.42
2019-03-25T14:33:18.527Z,0.40
2019-03-25T14:35:19.750Z,0.30
2019-03-25T14:37:20.913Z,0.40
2019-03-25T14:39:22.071Z,0.70
2019-03-25T14:41:23.258Z,0.20
2019-03-25T14:43:24.418Z,0.45
2019-03-25T14:45:26.848Z,0.42
2019-03-25T14:47:28.437Z,0.40
2019-03-25T14:49:29.661Z,0.50
2019-03-25T14:51:31.224Z,0.60
2019-03-25T14:53:32.466Z,1.05
2019-03-25T14:55:33.693Z,3.75
2019-03-25T14:57:34.953Z,2.27
2019-03-25T14:59:36.505Z,0.50
2019-03-25T15:01:37.643Z,0.68
2019-03-25T15:03:38.793Z,0.78
2019-03-25T15:05:40.046Z,0.28
2019-03-25T15:07:41.362Z,0.40
2019-03-25T15:09:42.590Z,0.50
2019-03-25T15:11:43.829Z,0.40
2019-03-25T15:13:44.994Z,0.60
2019-03-25T15:15:46.129Z,0.72
2019-03-25T15:17:47.578Z,0.60
2019-03-25T15:19:48.913Z,0.42
2019-03-25T15:21:50.057Z,0.55
2019-03-25T15:23:51.213Z,0.53
2019-03-25T15:25:52.677Z,0.40
2019-03-25T15:27:53.923Z,0.47
2019-03-25T15:29:55.057Z,0.60
2019-03-25T15:31:56.293Z,0.47
2019-03-25T15:33:57.755Z,0.75
2019-03-25T15:35:58.937Z,0.75
2019-03-25T15:38:00.084Z,1.42
2019-03-25T15:40:05.044Z,0.90
2019-03-25T15:42:06.358Z,1.00
2019-03-25T15:44:07.683Z,0.98
2019-03-25T15:46:08.820Z,1.20
2019-03-25T15:48:09.982Z,1.30
2019-03-25T15:50:11.836Z,0.85
2019-03-25T15:52:13.409Z,0.95
2019-03-25T15:54:14.565Z,1.37
2019-03-25T15:56:15.785Z,1.10
2019-03-25T15:58:25.672Z,1.87
2019-03-25T16:00:20.935Z,1.80
2019-03-25T16:02:22.498Z,1.92
2019-03-25T16:04:23.770Z,1.60
2019-03-25T16:06:25.057Z,1.72
2019-03-25T16:08:27.881Z,1.80
2019-03-25T16:10:29.514Z,2.40
2019-03-25T16:12:30.665Z,1.85
2019-03-25T16:14:31.923Z,2.37
2019-03-25T16:16:33.101Z,1.95
2019-03-25T16:18:38.809Z,2.20
2019-03-25T16:20:40.321Z,2.20
2019-03-25T16:22:41.449Z,2.00
2019-03-25T16:24:42.896Z,1.90
2019-03-25T16:26:44.136Z,1.75
2019-03-25T16:28:45.706Z,1.70
2019-03-25T16:30:57.962Z,1.70
2019-03-25T16:32:49.997Z,2.00
2019-03-25T16:34:51.503Z,1.90
2019-03-25T16:36:52.757Z,1.40
2019-03-25T16:38:54.210Z,1.60
2019-03-25T16:40:55.370Z,1.40
2019-03-25T16:42:56.636Z,1.30
2019-03-25T16:44:57.794Z,1.30
2019-03-25T16:46:58.993Z,1.20
2019-03-25T16:49:00.249Z,1.50
2019-03-25T16:51:01.401Z,1.77
2019-03-25T16:53:02.548Z,2.22
2019-03-25T16:55:04.704Z,1.45
2019-03-25T16:57:06.033Z,1.37
2019-03-25T16:59:07.282Z,1.30
2019-03-25T17:01:10.469Z,1.90
2019-03-25T17:03:11.909Z,1.55
2019-03-25T17:05:13.474Z,2.42
2019-03-25T17:07:14.618Z,1.82
2019-03-25T17:09:15.843Z,2.05
2019-03-25T17:11:16.982Z,2.17
2019-03-25T17:13:18.446Z,1.80
2019-03-25T17:15:19.995Z,1.87
2019-03-25T17:17:21.234Z,1.60
2019-03-25T17:19:22.394Z,2.05
2019-03-25T17:21:23.625Z,1.90
2019-03-25T17:23:24.765Z,1.70
2019-03-25T17:25:25.925Z,2.00
2019-03-25T17:27:27.337Z,1.72
2019-03-25T17:29:28.568Z,1.60
2019-03-25T17:31:29.709Z,1.40
2019-03-25T17:33:30.843Z,2.70
2019-03-25T17:35:32.001Z,2.60
2019-03-25T17:37:33.141Z,2.33
2019-03-25T17:39:34.291Z,2.20
2019-03-25T17:41:35.442Z,2.20
2019-03-25T17:43:36.575Z,2.40
2019-03-25T17:45:37.728Z,1.35
2019-03-25T17:47:38.882Z,2.33
2019-03-25T17:49:40.077Z,2.00
2019-03-25T17:51:41.546Z,1.92
2019-03-25T17:53:43.076Z,1.65
2019-03-25T17:55:44.326Z,1.67
2019-03-25T17:57:45.465Z,2.35
2019-03-25T17:59:46.633Z,3.20
2019-03-25T18:01:47.825Z,3.08
2019-03-25T18:03:49.067Z,2.90
2019-03-25T18:05:50.317Z,2.27
2019-03-25T18:07:51.458Z,2.45
2019-03-25T18:09:52.905Z,2.20
2019-03-25T18:11:54.147Z,2.22
2019-03-25T18:13:55.285Z,2.10
2019-03-25T18:15:56.455Z,2.10
2019-03-25T18:17:57.764Z,2.33
2019-03-25T18:20:00.145Z,2.83
2019-03-25T18:22:01.558Z,2.40
2019-03-25T18:24:02.809Z,2.30
2019-03-25T18:26:04.018Z,1.87
2019-03-25T18:28:05.313Z,2.02
2019-03-25T18:30:07.461Z,1.90
2019-03-25T18:32:09.027Z,2.65
2019-03-25T18:34:10.689Z,1.92
2019-03-25T18:38:12.970Z,1.92
2019-03-25T18:40:14.170Z,1.82
2019-03-25T18:42:15.518Z,1.72
2019-03-25T18:44:16.764Z,1.52
2019-03-25T18:46:17.972Z,2.12
2019-03-25T18:48:19.205Z,1.75
2019-03-25T18:50:20.413Z,2.27
2019-03-25T18:52:21.546Z,1.70
2019-03-25T18:54:22.779Z,2.20
2019-03-25T18:56:24.037Z,1.67
2019-03-25T18:58:25.476Z,2.00
2019-03-25T19:00:33.857Z,1.80
2019-03-25T19:02:35.381Z,2.05
2019-03-25T19:04:37.209Z,2.20
2019-03-25T19:06:38.541Z,2.10
2019-03-25T19:08:39.878Z,2.45
2019-03-25T19:10:41.115Z,2.70
2019-03-25T19:12:42.377Z,2.83
2019-03-25T19:14:43.937Z,4.95
2019-03-25T19:16:45.109Z,5.10
2019-03-25T19:18:46.529Z,4.15
2019-03-25T19:20:47.753Z,3.17
2019-03-25T19:22:49.187Z,6.40
2019-03-25T19:24:50.355Z,4.83
2019-03-25T19:26:51.574Z,2.83
2019-03-25T19:28:52.737Z,2.50
2019-03-25T19:30:53.994Z,2.65
2019-03-25T19:32:55.502Z,1.77
2019-03-25T19:34:56.748Z,5.12
2019-03-25T19:36:57.915Z,2.22
2019-03-25T19:38:59.278Z,2.47
2019-03-25T19:41:00.443Z,2.37
2019-03-25T19:43:01.601Z,2.10
2019-03-25T19:45:05.952Z,5.20
2019-03-25T19:47:07.102Z,3.50
2019-03-25T19:49:08.739Z,3.08
2019-03-25T19:53:18.891Z,2.62
2019-03-25T19:55:14.807Z,2.70
2019-03-25T19:57:15.966Z,2.70
2019-03-25T19:59:17.309Z,3.70
2019-03-25T20:01:18.563Z,2.75
2019-03-25T20:03:19.845Z,3.05
2019-03-25T20:05:21.151Z,3.77
2019-03-25T20:07:22.679Z,7.53
2019-03-25T20:09:23.884Z,4.87
2019-03-25T20:11:25.093Z,4.28
2019-03-25T20:13:26.234Z,2.70
2019-03-25T20:15:27.421Z,3.30
2019-03-25T20:17:28.983Z,3.62
2019-03-25T20:19:30.139Z,2.80
2019-03-25T20:21:31.343Z,2.90
2019-03-25T20:23:32.553Z,2.70
2019-03-25T20:25:33.707Z,2.90
2019-03-25T20:27:35.181Z,3.40
2019-03-25T20:29:36.686Z,3.45
2019-03-25T20:31:37.834Z,4.22
2019-03-25T20:33:38.992Z,2.42
2019-03-25T20:35:40.442Z,4.08
2019-03-25T20:37:41.608Z,3.90
2019-03-25T20:39:42.757Z,3.83
2019-03-25T20:41:44.006Z,4.05
2019-03-25T20:43:45.317Z,3.83
2019-03-25T20:45:46.622Z,5.03
2019-03-25T20:47:47.863Z,4.05
2019-03-25T20:49:49.161Z,3.98
2019-03-25T20:51:50.411Z,3.65
2019-03-25T20:53:51.833Z,4.10
2019-03-25T20:55:53.453Z,3.83
2019-03-25T20:59:55.789Z,4.00
2019-03-25T21:01:57.145Z,4.25
2019-03-25T21:03:58.623Z,3.67
2019-03-25T21:05:59.935Z,4.20
2019-03-25T21:08:01.223Z,4.20
2019-03-25T21:10:04.893Z,4.85
2019-03-25T21:12:06.178Z,4.20
2019-03-25T21:14:07.460Z,4.10
2019-03-25T21:16:08.679Z,4.37
2019-03-25T21:18:10.066Z,5.50
2019-03-25T21:20:11.483Z,4.67
2019-03-25T21:22:12.738Z,4.95
2019-03-25T21:24:14.162Z,4.70
2019-03-25T21:26:15.715Z,4.90
2019-03-25T21:28:17.192Z,5.20
2019-03-25T21:30:18.567Z,6.30
2019-03-25T21:32:20.022Z,6.03
2019-03-25T21:34:21.556Z,5.45
2019-03-25T21:36:22.836Z,5.90
2019-03-25T21:38:24.027Z,5.87
2019-03-25T21:40:25.329Z,6.12
2019-03-25T21:42:29.063Z,6.58
2019-03-25T21:44:29.685Z,6.15
2019-03-25T21:46:31.001Z,7.12
2019-03-25T21:48:32.427Z,5.10
2019-03-25T21:50:33.657Z,6.53
2019-03-25T21:52:35.062Z,6.10
2019-03-25T21:54:37.376Z,6.30
2019-03-25T21:56:38.610Z,6.78
2019-03-25T21:58:39.790Z,6.25
2019-03-25T22:00:40.950Z,6.78
2019-03-25T22:02:42.165Z,6.17
2019-03-25T22:04:43.485Z,6.20
2019-03-25T22:06:44.629Z,6.80
2019-03-25T22:08:46.195Z,7.00
2019-03-25T22:10:47.392Z,6.60
2019-03-25T22:12:48.615Z,6.70
2019-03-25T22:14:49.818Z,6.30
2019-03-25T22:16:51.047Z,7.50
2019-03-25T22:18:52.477Z,7.58
2019-03-25T22:20:53.952Z,6.72
2019-03-25T22:22:55.714Z,6.62
2019-03-25T22:24:56.868Z,6.97
2019-03-25T22:26:58.016Z,7.78
2019-03-25T22:28:59.300Z,6.83
2019-03-25T22:31:00.781Z,5.70
2019-03-25T22:33:02.230Z,6.20
2019-03-25T22:35:05.031Z,6.67
2019-03-25T22:37:06.181Z,6.47
2019-03-25T22:39:07.358Z,5.15
2019-03-25T22:41:08.513Z,6.22
2019-03-25T22:43:09.666Z,5.65
2019-03-25T22:45:10.922Z,6.00
2019-03-25T22:47:12.083Z,6.92
2019-03-25T22:49:13.237Z,7.90
2019-03-25T22:51:14.493Z,6.62
2019-03-25T22:53:15.650Z,6.75
2019-03-25T22:55:16.812Z,6.15
2019-03-25T22:57:17.957Z,7.37
2019-03-25T22:59:19.112Z,6.28
2019-03-25T23:01:20.348Z,6.30
2019-03-25T23:03:21.924Z,5.90
2019-03-25T23:05:23.114Z,5.87
2019-03-25T23:07:24.266Z,5.92
2019-03-25T23:09:25.703Z,8.48
2019-03-25T23:11:27.260Z,6.58
2019-03-25T23:13:28.421Z,5.50
2019-03-25T23:15:29.569Z,5.42
2019-03-25T23:17:30.725Z,5.08
2019-03-25T23:19:31.874Z,4.97
2019-03-25T23:21:33.026Z,5.12
2019-03-25T23:23:34.188Z,4.60
2019-03-25T23:25:35.749Z,5.20
2019-03-25T23:27:36.889Z,4.72
2019-03-25T23:29:38.133Z,4.97
2019-03-25T23:31:39.272Z,4.42
2019-03-25T23:33:51.658Z,5.30
2019-03-25T23:35:44.066Z,3.75
2019-03-25T23:37:45.211Z,4.90
2019-03-25T23:39:46.384Z,4.55
2019-03-25T23:41:47.611Z,4.92
2019-03-25T23:43:49.077Z,4.55
2019-03-25T23:45:50.239Z,4.58
2019-03-25T23:47:51.390Z,6.35
2019-03-25T23:49:52.545Z,5.03
2019-03-25T23:51:53.697Z,4.05
2019-03-25T23:53:56.762Z,4.35
2019-03-25T23:55:58.008Z,4.30
2019-03-25T23:57:59.146Z,4.40
